createdAt,value
2023-03-29T04:33:24.797Z,65.13
2023-03-29T04:34:24.785Z,65.23
2023-03-29T04:35:24.772Z,64.81
2023-03-29T04:36:24.786Z,64.50
2023-03-29T04:37:24.750Z,63.50
2023-03-29T04:38:24.739Z,62.98
2023-03-29T04:42:24.700Z,64.22
2023-03-29T04:43:24.686Z,64.43
2023-03-29T04:44:24.688Z,65.26
2023-03-29T04:45:24.727Z,65.78
2023-03-29T04:47:24.666Z,67.37
2023-03-29T04:48:24.642Z,68.40
2023-03-29T04:49:26.109Z,68.82
2023-03-29T04:50:24.623Z,68.43
2023-03-29T04:51:24.632Z,68.64
2023-03-29T04:52:24.734Z,70.20
2023-03-29T04:53:24.589Z,70.51
2023-03-29T04:54:24.583Z,69.37
2023-03-29T04:55:24.571Z,68.54
2023-03-29T04:56:24.558Z,68.23
2023-03-29T04:57:24.692Z,67.78
2023-03-29T04:58:28.257Z,67.60
2023-03-29T04:59:25.548Z,68.95
2023-03-29T05:00:24.521Z,69.58
2023-03-29T05:01:24.534Z,69.68
2023-03-29T05:02:24.554Z,69.68
2023-03-29T05:03:24.522Z,69.99
2023-03-29T05:04:24.503Z,69.68
2023-03-29T05:05:24.474Z,70.09
2023-03-29T05:06:24.467Z,70.30
2023-03-29T05:07:24.448Z,70.41
2023-03-29T05:08:24.481Z,69.26
2023-03-29T05:09:24.429Z,69.26
2023-03-29T05:10:24.478Z,67.60
2023-03-29T05:11:24.416Z,66.57
2023-03-29T05:12:24.395Z,66.11
2023-03-29T05:13:24.392Z,65.60
2023-03-29T05:14:24.374Z,66.01
2023-03-29T05:15:24.371Z,67.05
2023-03-29T05:16:24.432Z,67.37
2023-03-29T05:17:24.377Z,66.64
2023-03-29T05:18:24.337Z,66.74
2023-03-29T05:19:24.325Z,66.43
2023-03-29T05:20:24.323Z,65.88
2023-03-29T05:21:24.307Z,66.51
2023-03-29T05:22:24.291Z,66.61
2023-03-29T05:23:24.285Z,66.74
2023-03-29T05:24:24.307Z,66.51
2023-03-29T05:25:24.265Z,66.09
2023-03-29T05:26:24.252Z,65.78
2023-03-29T05:27:24.244Z,65.99
2023-03-29T05:28:24.236Z,65.99
2023-03-29T05:29:24.223Z,65.88
2023-03-29T05:30:24.219Z,63.91
2023-03-29T05:31:24.226Z,62.43
2023-03-29T05:32:24.223Z,60.66
2023-03-29T05:33:24.183Z,60.74
2023-03-29T05:34:24.178Z,60.63
2023-03-29T05:35:24.169Z,61.26
2023-03-29T05:36:24.154Z,62.09
2023-03-29T05:37:24.156Z,62.01
2023-03-29T05:38:24.138Z,59.94
2023-03-29T05:39:24.124Z,61.88
2023-03-29T05:40:24.135Z,61.98
2023-03-29T05:41:24.104Z,61.05
2023-03-29T05:42:24.088Z,61.57
2023-03-29T05:43:24.081Z,62.19
2023-03-29T05:44:24.071Z,61.57
2023-03-29T05:45:24.112Z,61.36
2023-03-29T05:46:24.050Z,61.13
2023-03-29T05:47:24.069Z,60.82
2023-03-29T05:48:24.032Z,59.57
2023-03-29T05:49:24.024Z,59.68
2023-03-29T05:50:24.008Z,59.99
2023-03-29T05:51:23.996Z,59.85
2023-03-29T05:52:24.001Z,59.75
2023-03-29T05:53:23.991Z,59.65
2023-03-29T05:54:23.970Z,60.89
2023-03-29T05:55:23.964Z,59.96
2023-03-29T05:56:23.976Z,59.55
2023-03-29T05:57:24.043Z,59.75
2023-03-29T05:58:23.930Z,59.34
2023-03-29T05:59:23.923Z,60.06
2023-03-29T06:00:24.265Z,59.75
2023-03-29T06:01:23.908Z,59.44
2023-03-29T06:02:23.988Z,99.99
2023-03-29T06:03:24.022Z,58.41
2023-03-29T06:04:23.908Z,58.09
2023-03-29T06:05:23.862Z,58.09
2023-03-29T06:06:23.850Z,58.20
2023-03-29T06:07:23.837Z,57.97
2023-03-29T06:08:23.829Z,58.69
2023-03-29T06:09:23.823Z,59.62
2023-03-29T06:10:23.838Z,59.31
2023-03-29T06:11:23.803Z,58.58
2023-03-29T06:12:23.812Z,58.69
2023-03-29T06:13:23.779Z,59.72
2023-03-29T06:14:23.767Z,61.48
2023-03-29T06:15:23.761Z,62.59
2023-03-29T06:16:23.805Z,61.35
2023-03-29T06:17:23.772Z,60.73
2023-03-29T06:18:23.731Z,58.63
2023-03-29T06:19:23.716Z,58.02
2023-03-29T06:20:23.714Z,57.47
2023-03-29T06:21:23.700Z,56.43
2023-03-29T06:22:23.718Z,57.06
2023-03-29T06:23:23.695Z,57.37
2023-03-29T06:24:23.667Z,57.16
2023-03-29T06:25:23.666Z,57.06
2023-03-29T06:26:23.647Z,55.59
2023-03-29T06:27:23.660Z,56.62
2023-03-29T06:28:23.657Z,55.99
2023-03-29T06:29:23.617Z,55.79
2023-03-29T06:30:23.605Z,54.86
2023-03-29T06:31:23.606Z,55.48
2023-03-29T06:32:23.666Z,55.38
2023-03-29T06:33:23.575Z,55.38
2023-03-29T06:34:23.567Z,55.61
2023-03-29T06:35:23.560Z,56.31
2023-03-29T06:36:23.545Z,54.55
2023-03-29T06:37:23.538Z,54.52
2023-03-29T06:38:23.530Z,54.86
2023-03-29T06:39:23.517Z,54.55
2023-03-29T06:40:23.512Z,54.44
2023-03-29T06:41:23.780Z,54.76
2023-03-29T06:42:23.485Z,55.27
2023-03-29T06:43:23.475Z,55.69
2023-03-29T06:44:23.647Z,55.89
2023-03-29T06:45:24.628Z,55.48
2023-03-29T06:46:23.464Z,55.38
2023-03-29T06:47:23.463Z,54.01
2023-03-29T06:48:23.427Z,54.52
2023-03-29T06:49:23.421Z,55.25
2023-03-29T06:50:23.409Z,56.80
2023-03-29T06:51:23.619Z,57.96
2023-03-29T06:52:23.385Z,58.58
2023-03-29T06:53:23.382Z,58.99
2023-03-29T06:54:23.370Z,58.30
2023-03-29T06:55:23.357Z,58.06
2023-03-29T06:56:23.349Z,58.06
2023-03-29T06:58:23.328Z,57.36
2023-03-29T06:59:23.316Z,56.95
2023-03-29T07:00:23.344Z,56.72
2023-03-29T07:01:23.315Z,56.62
2023-03-29T07:02:23.301Z,57.03
2023-03-29T07:03:23.328Z,58.34
2023-03-29T07:04:23.314Z,58.44
2023-03-29T07:05:23.251Z,58.01
2023-03-29T07:06:23.246Z,57.70
2023-03-29T07:07:23.233Z,58.08
2023-03-29T07:08:23.220Z,56.64
2023-03-29T07:09:23.212Z,55.51
2023-03-29T07:10:23.199Z,56.33
2023-03-29T07:11:23.288Z,57.67
2023-03-29T07:12:23.206Z,57.98
2023-03-29T07:13:23.166Z,58.29
2023-03-29T07:14:23.157Z,58.01
2023-03-29T07:15:23.151Z,58.52
2023-03-29T07:16:23.197Z,58.93
2023-03-29T07:17:23.153Z,58.21
2023-03-29T07:18:23.117Z,58.21
2023-03-29T07:19:23.110Z,57.05
2023-03-29T07:20:23.140Z,56.20
2023-03-29T07:21:23.096Z,55.27
2023-03-29T07:22:23.078Z,55.35
2023-03-29T07:23:23.070Z,56.46
2023-03-29T07:24:23.061Z,56.07
2023-03-29T07:25:23.254Z,55.97
2023-03-29T07:26:28.768Z,56.67
2023-03-29T07:27:24.047Z,53.94
2023-03-29T07:28:23.024Z,53.25
2023-03-29T07:29:23.017Z,53.32
2023-03-29T07:30:23.000Z,52.99
2023-03-29T07:31:22.992Z,52.04
2023-03-29T07:32:23.040Z,51.84
2023-03-29T07:33:23.259Z,52.22
2023-03-29T07:34:22.955Z,51.89
2023-03-29T07:35:22.943Z,51.58
2023-03-29T07:36:22.984Z,51.20
2023-03-29T07:37:22.921Z,52.04
2023-03-29T07:38:22.949Z,52.76
2023-03-29T07:39:22.915Z,52.14
2023-03-29T07:40:22.925Z,52.22
2023-03-29T07:41:22.877Z,51.71
2023-03-29T07:42:22.873Z,51.48
2023-03-29T07:43:22.861Z,50.87
2023-03-29T07:44:22.847Z,50.25
2023-03-29T07:45:26.846Z,50.45
2023-03-29T07:46:22.845Z,50.64
2023-03-29T07:47:22.819Z,49.20
2023-03-29T07:48:22.835Z,48.57
2023-03-29T07:49:22.812Z,47.80
2023-03-29T07:50:22.793Z,47.39
2023-03-29T07:51:22.800Z,47.47
2023-03-29T07:52:22.767Z,47.96
2023-03-29T07:53:22.759Z,46.74
2023-03-29T07:54:22.745Z,47.00
2023-03-29T07:55:22.732Z,47.95
2023-03-29T07:56:22.757Z,48.18
2023-03-29T07:57:22.812Z,48.18
2023-03-29T07:58:22.754Z,48.15
2023-03-29T07:59:22.708Z,48.36
2023-03-29T08:00:22.701Z,47.82
2023-03-29T08:01:22.696Z,47.90
2023-03-29T08:02:22.661Z,47.70
2023-03-29T08:03:22.846Z,47.29
2023-03-29T08:04:22.918Z,47.39
2023-03-29T08:05:37.753Z,45.81
2023-03-29T08:06:23.646Z,45.10
2023-03-29T08:07:22.606Z,43.85
2023-03-29T08:08:22.598Z,43.53
2023-03-29T08:09:22.589Z,43.60
2023-03-29T08:10:22.606Z,43.53
2023-03-29T08:11:22.567Z,43.07
2023-03-29T08:12:24.567Z,44.42
2023-03-29T08:13:22.549Z,45.86
2023-03-29T08:14:22.544Z,47.27
2023-03-29T08:15:22.527Z,45.61
2023-03-29T08:16:22.540Z,45.81
2023-03-29T08:17:22.507Z,45.18
2023-03-29T08:18:22.504Z,44.95
2023-03-29T08:19:22.508Z,44.00
2023-03-29T08:20:22.522Z,43.46
2023-03-29T08:21:22.472Z,42.65
2023-03-29T08:22:22.459Z,43.32
2023-03-29T08:23:22.458Z,44.89
2023-03-29T08:24:22.441Z,44.69
2023-03-29T08:25:22.434Z,45.92
2023-03-29T08:26:22.420Z,45.61
2023-03-29T08:27:22.416Z,44.75
2023-03-29T08:28:22.396Z,44.53
2023-03-29T08:29:22.391Z,43.67
2023-03-29T08:30:22.396Z,42.12
2023-03-29T08:31:22.471Z,42.34
2023-03-29T08:32:22.410Z,42.83
2023-03-29T08:33:22.429Z,43.15
2023-03-29T08:34:22.339Z,45.94
2023-03-29T08:35:22.351Z,43.85
2023-03-29T08:36:22.346Z,42.74
2023-03-29T08:37:22.309Z,42.73
2023-03-29T08:38:22.299Z,42.71
2023-03-29T08:39:22.292Z,43.73
2023-03-29T08:40:22.277Z,44.42
2023-03-29T08:41:22.265Z,41.22
2023-03-29T08:42:22.255Z,40.28
2023-03-29T08:43:22.244Z,38.20
2023-03-29T08:44:22.238Z,38.29
2023-03-29T08:45:22.238Z,38.15
2023-03-29T08:46:22.296Z,39.58
2023-03-29T08:47:22.234Z,40.99
2023-03-29T08:48:22.210Z,40.47
2023-03-29T08:49:22.186Z,39.20
2023-03-29T08:50:22.175Z,37.34
2023-03-29T08:51:22.180Z,36.99
2023-03-29T08:52:22.195Z,36.77
2023-03-29T08:53:22.145Z,36.74
2023-03-29T08:54:22.139Z,35.85
2023-03-29T08:55:22.138Z,36.38
2023-03-29T08:56:22.120Z,37.53
2023-03-29T08:57:22.185Z,37.95
2023-03-29T08:58:22.097Z,38.50
2023-03-29T08:59:22.091Z,38.01
2023-03-29T09:00:22.076Z,37.69
2023-03-29T09:01:22.114Z,37.86
2023-03-29T09:02:22.166Z,37.94
2023-03-29T09:03:22.142Z,38.04
2023-03-29T09:04:22.034Z,37.62
2023-03-29T09:05:22.027Z,37.01
2023-03-29T09:06:22.083Z,36.69
2023-03-29T09:07:24.025Z,36.77
2023-03-29T09:08:22.059Z,34.73
2023-03-29T09:09:21.989Z,35.96
2023-03-29T09:10:21.980Z,36.37
2023-03-29T09:11:21.966Z,35.65
2023-03-29T09:12:21.954Z,34.83
2023-03-29T09:13:21.981Z,34.51
2023-03-29T09:14:21.932Z,36.84
2023-03-29T09:15:21.919Z,35.14
2023-03-29T09:16:21.958Z,35.65
2023-03-29T09:17:21.905Z,35.65
2023-03-29T09:18:21.895Z,34.22
2023-03-29T09:19:21.890Z,34.71
2023-03-29T09:20:21.897Z,35.32
2023-03-29T09:21:21.856Z,35.21
2023-03-29T09:22:21.852Z,34.36
2023-03-29T09:23:21.839Z,33.35
2023-03-29T09:24:21.858Z,33.55
2023-03-29T09:25:21.817Z,34.08
2023-03-29T09:26:21.808Z,34.77
2023-03-29T09:27:21.792Z,33.67
2023-03-29T09:28:21.785Z,35.12
2023-03-29T09:29:21.777Z,35.58
2023-03-29T09:30:21.768Z,34.26
2023-03-29T09:31:21.781Z,34.25
2023-03-29T09:32:21.744Z,34.35
2023-03-29T09:33:21.738Z,34.53
2023-03-29T09:34:21.726Z,35.14
2023-03-29T09:35:21.718Z,35.51
2023-03-29T09:36:21.708Z,34.08
2023-03-29T09:37:21.705Z,33.27
2023-03-29T09:38:21.690Z,34.31
2023-03-29T09:39:21.673Z,35.26
2023-03-29T09:40:21.734Z,35.04
2023-03-29T09:41:21.672Z,34.19
2023-03-29T09:42:21.649Z,33.37
2023-03-29T09:43:21.638Z,31.82
2023-03-29T09:44:30.979Z,33.57
2023-03-29T09:45:22.740Z,33.55
2023-03-29T09:46:21.715Z,32.43
2023-03-29T09:47:21.600Z,31.09
2023-03-29T09:48:21.594Z,28.14
2023-03-29T09:49:21.576Z,31.14
2023-03-29T09:50:31.087Z,29.24
2023-03-29T09:51:22.581Z,28.91
2023-03-29T09:52:21.546Z,32.58
2023-03-29T09:53:21.541Z,31.67
2023-03-29T09:54:21.527Z,31.04
2023-03-29T09:55:21.518Z,28.54
2023-03-29T09:56:21.536Z,30.43
2023-03-29T09:57:21.533Z,30.39
2023-03-29T09:58:21.491Z,30.21
2023-03-29T09:59:21.486Z,32.84
2023-03-29T10:00:21.491Z,32.59
2023-03-29T10:01:21.512Z,32.75
2023-03-29T10:02:21.480Z,29.28
2023-03-29T10:03:21.445Z,27.96
2023-03-29T10:04:21.485Z,27.85
2023-03-29T10:05:21.422Z,28.56
2023-03-29T10:06:21.420Z,27.74
2023-03-29T10:07:21.418Z,29.54
2023-03-29T10:08:21.399Z,28.75
2023-03-29T10:09:21.389Z,31.17
2023-03-29T10:10:21.377Z,30.75
2023-03-29T10:11:21.363Z,30.35
2023-03-29T10:12:21.380Z,30.95
2023-03-29T10:13:21.358Z,28.82
2023-03-29T10:14:21.346Z,30.23
2023-03-29T10:15:29.263Z,29.53
2023-03-29T10:16:22.367Z,31.32
2023-03-29T10:17:21.315Z,33.85
2023-03-29T10:18:21.304Z,29.69
2023-03-29T10:19:21.289Z,29.13
2023-03-29T10:20:21.277Z,31.90
2023-03-29T10:21:21.274Z,34.07
2023-03-29T10:22:21.259Z,34.10
2023-03-29T10:23:21.251Z,34.68
2023-03-29T10:24:21.260Z,36.83
2023-03-29T10:25:21.232Z,38.52
2023-03-29T10:26:21.226Z,35.61
2023-03-29T10:27:21.213Z,33.03
2023-03-29T10:28:21.232Z,34.21
2023-03-29T10:29:21.194Z,31.62
2023-03-29T10:30:21.185Z,30.78
2023-03-29T10:31:21.216Z,31.46
2023-03-29T10:32:21.171Z,29.64
2023-03-29T10:33:21.187Z,30.15
2023-03-29T10:34:21.142Z,29.41
2023-03-29T10:35:21.165Z,28.58
2023-03-29T10:36:21.126Z,28.16
2023-03-29T10:37:21.233Z,27.88
2023-03-29T10:38:21.106Z,28.58
2023-03-29T10:39:21.099Z,29.17
2023-03-29T10:40:21.090Z,29.27
2023-03-29T10:41:21.077Z,30.59
2023-03-29T10:42:21.067Z,29.30
2023-03-29T10:43:21.057Z,29.50
2023-03-29T10:44:21.076Z,29.91
2023-03-29T10:45:21.040Z,29.86
2023-03-29T10:46:21.040Z,33.63
2023-03-29T10:47:21.020Z,32.47
2023-03-29T10:48:21.007Z,31.10
2023-03-29T10:49:20.999Z,30.56
2023-03-29T10:50:20.991Z,29.86
2023-03-29T10:51:20.982Z,30.04
2023-03-29T10:52:20.967Z,32.12
2023-03-29T10:53:20.960Z,28.65
2023-03-29T10:54:20.981Z,31.65
2023-03-29T10:55:20.939Z,28.93
2023-03-29T10:56:20.931Z,28.96
2023-03-29T10:57:22.816Z,30.49
2023-03-29T10:58:20.913Z,30.18
2023-03-29T10:59:20.901Z,26.72
2023-03-29T11:00:20.922Z,29.07
2023-03-29T11:01:20.929Z,29.35
2023-03-29T11:02:20.929Z,31.75
2023-03-29T11:03:21.699Z,36.32
2023-03-29T11:04:20.853Z,35.16
2023-03-29T11:05:20.839Z,33.78
2023-03-29T11:06:20.836Z,32.11
2023-03-29T11:07:20.837Z,31.14
2023-03-29T11:08:20.813Z,32.78
2023-03-29T11:09:20.829Z,29.77
2023-03-29T11:10:20.824Z,33.33
2023-03-29T11:11:20.788Z,30.91
2023-03-29T11:12:20.777Z,32.92
2023-03-29T11:13:20.765Z,34.33
2023-03-29T11:14:20.752Z,35.51
2023-03-29T11:15:20.752Z,35.36
2023-03-29T11:16:20.932Z,30.46
2023-03-29T11:17:20.823Z,30.92
2023-03-29T11:18:20.730Z,30.09
2023-03-29T11:19:20.710Z,31.82
2023-03-29T11:20:20.696Z,30.96
2023-03-29T11:21:20.683Z,30.68
2023-03-29T11:22:20.680Z,31.40
2023-03-29T11:23:20.675Z,31.79
2023-03-29T11:24:20.656Z,35.29
2023-03-29T11:25:20.651Z,30.74
2023-03-29T11:26:20.633Z,31.64
2023-03-29T11:27:20.623Z,33.55
2023-03-29T11:28:20.625Z,33.06
2023-03-29T11:29:20.610Z,33.80
2023-03-29T11:30:20.596Z,33.12
2023-03-29T11:31:20.659Z,33.61
2023-03-29T11:32:20.645Z,36.41
2023-03-29T11:33:20.568Z,35.44
2023-03-29T11:34:20.566Z,32.87
2023-03-29T11:35:20.556Z,30.43
2023-03-29T11:36:20.545Z,31.53
2023-03-29T11:37:20.531Z,32.61
2023-03-29T11:38:20.522Z,29.52
2023-03-29T11:39:20.514Z,31.90
2023-03-29T11:40:20.506Z,30.95
2023-03-29T11:41:20.499Z,29.42
2023-03-29T11:42:20.496Z,29.03
2023-03-29T11:43:20.482Z,30.70
2023-03-29T11:44:20.471Z,26.48
2023-03-29T11:45:20.461Z,26.67
2023-03-29T11:46:20.461Z,29.06
2023-03-29T11:47:20.441Z,26.03
2023-03-29T11:48:20.454Z,25.43
2023-03-29T11:49:20.419Z,25.72
2023-03-29T11:50:20.411Z,27.40
2023-03-29T11:51:20.399Z,25.80
2023-03-29T11:52:20.388Z,26.40
2023-03-29T11:53:20.381Z,27.20
2023-03-29T11:54:20.373Z,25.52
2023-03-29T11:55:20.362Z,22.46
2023-03-29T11:57:27.271Z,24.67
2023-03-29T11:57:28.916Z,24.68
2023-03-29T11:58:29.353Z,24.07
2023-03-29T11:59:28.722Z,26.30
2023-03-29T12:00:28.720Z,26.33
2023-03-29T12:01:28.703Z,26.24
2023-03-29T12:10:24.802Z,29.31
2023-03-29T12:10:26.229Z,25.68
2023-03-29T14:13:19.119Z,25.49
2023-03-29T16:18:22.791Z,0.00
2023-03-29T16:20:24.190Z,99.99
2023-03-29T16:21:24.185Z,99.99
2023-03-29T16:22:24.177Z,99.99
2023-03-29T16:23:24.174Z,0.00
2023-03-29T16:24:24.192Z,99.99
2023-03-29T16:25:24.238Z,99.99
2023-03-29T16:26:24.142Z,99.99
2023-03-29T16:28:24.114Z,99.99
2023-03-29T16:29:24.104Z,99.99
2023-03-29T16:30:24.099Z,99.99
2023-03-29T16:32:24.277Z,99.99
2023-03-29T16:33:24.065Z,99.99
2023-03-29T16:34:24.090Z,31.14
2023-03-29T16:35:24.049Z,99.99
2023-03-29T16:36:24.081Z,31.37
2023-03-29T16:37:24.027Z,30.91
2023-03-29T16:38:24.087Z,32.96
2023-03-29T16:39:24.014Z,32.84
2023-03-29T16:40:24.019Z,32.53
2023-03-29T16:41:23.988Z,33.40
2023-03-29T16:42:23.978Z,33.08
2023-03-29T16:43:23.968Z,32.05
2023-03-29T16:44:24.142Z,32.05
2023-03-29T16:45:23.952Z,31.14
2023-03-29T16:46:23.998Z,30.34
2023-03-29T16:47:23.971Z,99.99
2023-03-29T16:48:23.924Z,31.34
2023-03-29T16:49:23.908Z,31.05
2023-03-29T16:50:24.002Z,32.26
2023-03-29T16:51:23.913Z,30.79
2023-03-29T16:52:24.101Z,31.91
2023-03-29T16:53:23.872Z,32.50
2023-03-29T16:54:23.861Z,32.48
2023-03-29T16:55:23.850Z,32.69
2023-03-29T16:56:23.846Z,32.88
2023-03-29T16:57:23.919Z,33.72
2023-03-29T16:58:23.828Z,34.42
2023-03-29T16:59:23.815Z,35.02
2023-03-29T17:00:23.810Z,35.02
2023-03-29T17:01:23.836Z,34.64
2023-03-29T17:02:23.845Z,35.38
2023-03-29T17:03:23.777Z,36.31
2023-03-29T17:04:23.790Z,38.22
2023-03-29T17:05:23.752Z,39.46
2023-03-29T17:06:23.765Z,40.19
2023-03-29T17:07:23.734Z,40.89
2023-03-29T17:08:23.759Z,40.91
2023-03-29T17:09:23.721Z,40.82
2023-03-29T17:10:23.706Z,40.33
2023-03-29T17:11:23.760Z,41.13
2023-03-29T17:12:23.682Z,42.85
2023-03-29T17:13:23.688Z,41.34
2023-03-29T17:14:23.665Z,40.85
2023-03-29T17:15:23.657Z,41.38
2023-03-29T17:16:23.728Z,41.68
2023-03-29T17:17:23.632Z,42.51
2023-03-29T17:18:23.625Z,42.81
2023-03-29T17:19:23.616Z,42.84
2023-03-29T17:20:23.601Z,42.43
2023-03-29T17:21:23.590Z,44.56
2023-03-29T17:22:23.610Z,42.53
2023-03-29T17:23:23.576Z,42.24
2023-03-29T17:24:23.567Z,42.77
2023-03-29T17:25:23.554Z,43.07
2023-03-29T17:26:23.543Z,42.87
2023-03-29T17:27:23.530Z,43.81
2023-03-29T17:28:23.520Z,43.60
2023-03-29T17:29:23.509Z,43.53
2023-03-29T17:30:23.499Z,43.93
2023-03-29T17:31:23.580Z,43.73
2023-03-29T17:32:23.623Z,44.66
2023-03-29T17:33:23.468Z,44.23
2023-03-29T17:34:23.462Z,43.85
2023-03-29T17:35:23.453Z,44.58
2023-03-29T17:36:23.457Z,45.39
2023-03-29T17:37:23.428Z,99.99
2023-03-29T17:38:23.448Z,44.70
2023-03-29T17:39:23.409Z,45.01
2023-03-29T17:40:23.402Z,45.11
2023-03-29T17:41:23.387Z,99.99
2023-03-29T17:42:23.382Z,44.93
2023-03-29T17:43:23.385Z,45.13
2023-03-29T17:44:23.376Z,45.54
2023-03-29T17:45:23.355Z,46.14
2023-03-29T17:46:23.366Z,46.55
2023-03-29T17:47:23.357Z,45.25
2023-03-29T17:48:23.329Z,45.36
2023-03-29T17:49:23.311Z,45.45
2023-03-29T17:50:23.297Z,46.37
2023-03-29T17:51:23.291Z,47.11
2023-03-29T17:52:23.291Z,49.85
2023-03-29T17:53:23.264Z,51.10
2023-03-29T17:54:23.284Z,48.55
2023-03-29T17:55:23.256Z,47.74
2023-03-29T17:56:23.238Z,50.10
2023-03-29T17:57:23.281Z,48.88
2023-03-29T17:58:23.228Z,52.14
2023-03-29T17:59:23.207Z,51.02
2023-03-29T18:00:23.198Z,51.45
2023-03-29T18:01:23.271Z,52.37
2023-03-29T18:02:23.407Z,53.00
2023-03-29T18:03:23.182Z,54.05
2023-03-29T18:04:23.152Z,53.33
2023-03-29T18:05:23.151Z,53.85
2023-03-29T18:06:23.141Z,54.69
2023-03-29T18:07:23.132Z,54.15
2023-03-29T18:08:23.115Z,55.40
2023-03-29T18:09:23.104Z,54.18
2023-03-29T18:10:23.134Z,54.99
2023-03-29T18:11:23.084Z,56.65
2023-03-29T18:12:23.081Z,56.22
2023-03-29T18:13:23.064Z,56.65
2023-03-29T18:14:23.056Z,58.19
2023-03-29T18:16:23.083Z,57.50
2023-03-29T18:17:23.077Z,56.65
2023-03-29T18:18:23.019Z,99.99
2023-03-29T18:19:23.000Z,55.02
2023-03-29T18:24:22.959Z,56.86
2023-03-29T18:25:22.938Z,54.71
2023-03-29T18:26:22.962Z,53.49
2023-03-29T18:27:22.928Z,54.41
2023-03-29T18:28:22.909Z,53.28
2023-03-29T18:29:22.904Z,54.20
2023-03-29T18:40:22.791Z,53.10
2023-03-29T20:47:21.529Z,76.90
